createdAt,value
2024-02-02T00:00:51.358Z,102282.16
2024-02-02T00:03:18.076Z,102277.38
2024-02-02T00:05:45.670Z,102270.16
2024-02-02T00:08:12.193Z,102271.88
2024-02-02T00:10:38.672Z,102269.13
2024-02-02T00:13:05.449Z,102277.81
2024-02-02T00:15:34.690Z,102278.59
2024-02-02T00:18:01.301Z,102271.13
2024-02-02T00:20:27.804Z,102268.38
2024-02-02T00:22:56.953Z,102263.59
2024-02-02T00:25:24.017Z,102261.03
2024-02-02T00:27:50.494Z,102267.00
2024-02-02T00:30:17.166Z,102259.75
2024-02-02T00:32:45.972Z,102263.94
2024-02-02T00:35:15.782Z,102272.75
2024-02-02T00:37:43.166Z,102281.28
2024-02-02T00:40:13.040Z,102279.16
2024-02-02T00:42:39.655Z,102280.84
2024-02-02T00:45:07.006Z,102277.25
2024-02-02T00:47:33.498Z,102268.28
2024-02-02T00:50:00.759Z,102259.47
2024-02-02T00:52:27.742Z,102265.53
2024-02-02T00:54:54.684Z,102269.88
2024-02-02T00:57:21.671Z,102261.81
2024-02-02T00:59:49.438Z,102253.91
2024-02-02T01:02:16.199Z,102260.75
2024-02-02T01:04:43.370Z,102268.72
2024-02-02T01:07:10.568Z,102263.28
2024-02-02T01:09:38.109Z,102250.63
2024-02-02T01:12:04.945Z,102258.81
2024-02-02T01:14:31.566Z,102264.03
2024-02-02T01:16:58.064Z,102260.28
2024-02-02T01:19:24.652Z,102260.94
2024-02-02T01:21:51.355Z,102250.28
2024-02-02T01:24:18.931Z,102225.28
2024-02-02T01:26:45.564Z,102216.22
2024-02-02T01:29:12.119Z,102199.06
2024-02-02T01:31:38.567Z,102201.28
2024-02-02T01:34:05.261Z,102192.59
2024-02-02T01:36:31.879Z,102199.50
2024-02-02T01:38:58.428Z,102194.19
2024-02-02T01:41:24.953Z,102198.31
2024-02-02T01:43:51.782Z,102187.56
2024-02-02T01:46:18.480Z,102192.66
2024-02-02T01:48:45.043Z,102199.69
2024-02-02T01:51:12.686Z,102191.81
2024-02-02T01:53:39.616Z,102201.28
2024-02-02T01:56:06.962Z,102200.94
2024-02-02T01:58:33.814Z,102204.34
2024-02-02T02:01:01.002Z,102203.16
2024-02-02T02:03:27.994Z,102212.63
2024-02-02T02:05:55.052Z,102214.44
2024-02-02T02:08:22.165Z,102208.03
2024-02-02T02:10:48.900Z,102208.47
2024-02-02T02:13:15.660Z,102214.38
2024-02-02T02:15:42.612Z,102216.09
2024-02-02T02:18:09.159Z,102207.25
2024-02-02T02:20:36.030Z,102200.22
2024-02-02T02:23:02.887Z,102188.63
2024-02-02T02:25:29.763Z,102188.81
2024-02-02T02:27:56.348Z,102190.88
2024-02-02T02:30:23.087Z,102192.47
2024-02-02T02:32:49.843Z,102190.78
2024-02-02T02:35:16.810Z,102197.06
2024-02-02T02:37:43.943Z,102200.56
2024-02-02T02:40:11.241Z,102195.22
2024-02-02T02:42:37.784Z,102198.75
2024-02-02T02:45:04.622Z,102191.72
2024-02-02T02:47:31.231Z,102191.59
2024-02-02T02:49:57.739Z,102180.63
2024-02-02T02:52:24.183Z,102181.47
2024-02-02T02:54:50.736Z,102184.63
2024-02-02T02:57:17.369Z,102182.72
2024-02-02T02:59:43.806Z,102171.81
2024-02-02T03:02:10.261Z,102176.59
2024-02-02T03:04:36.827Z,102174.22
2024-02-02T03:07:04.472Z,102169.34
2024-02-02T03:09:31.294Z,102161.78
2024-02-02T03:11:57.938Z,102170.16
2024-02-02T03:14:24.515Z,102163.63
2024-02-02T03:16:51.042Z,102165.06
2024-02-02T03:19:17.657Z,102164.88
2024-02-02T03:21:44.182Z,102160.03
2024-02-02T03:24:12.056Z,102163.28
2024-02-02T03:26:38.712Z,102152.41
2024-02-02T03:29:05.092Z,102145.03
2024-02-02T03:31:31.537Z,102153.38
2024-02-02T03:33:58.860Z,102159.94
2024-02-02T03:36:25.416Z,102161.50
2024-02-02T03:38:51.964Z,102158.38
2024-02-02T03:41:18.860Z,102163.34
2024-02-02T03:43:45.288Z,102159.22
2024-02-02T03:46:11.748Z,102165.16
2024-02-02T03:48:38.277Z,102164.69
2024-02-02T03:51:05.356Z,102159.50
2024-02-02T03:53:31.761Z,102171.75
2024-02-02T03:55:59.297Z,102178.75
2024-02-02T03:58:25.706Z,102182.16
2024-02-02T04:00:52.316Z,102165.06
2024-02-02T04:03:20.696Z,102184.47
2024-02-02T04:05:47.229Z,102194.69
2024-02-02T04:08:13.679Z,102189.44
2024-02-02T04:10:40.316Z,102190.19
2024-02-02T04:13:07.919Z,102184.59
2024-02-02T04:15:34.416Z,102180.34
2024-02-02T04:18:00.990Z,102167.84
2024-02-02T04:20:27.701Z,102167.25
2024-02-02T04:22:54.109Z,102168.34
2024-02-02T04:25:20.578Z,102165.78
2024-02-02T04:27:46.978Z,102168.59
2024-02-02T04:30:14.479Z,102163.47
2024-02-02T04:32:41.220Z,102166.28
2024-02-02T04:35:07.676Z,102167.38
2024-02-02T04:37:34.186Z,102165.31
2024-02-02T04:40:00.624Z,102162.78
2024-02-02T04:42:27.206Z,102157.44
2024-02-02T04:44:53.748Z,102168.59
2024-02-02T04:47:20.542Z,102160.31
2024-02-02T04:49:47.082Z,102165.41
2024-02-02T04:52:14.576Z,102153.53
2024-02-02T04:54:41.934Z,102155.81
2024-02-02T04:57:08.485Z,102158.50
2024-02-02T04:59:34.955Z,102157.41
2024-02-02T05:02:04.897Z,102154.50
2024-02-02T05:04:33.311Z,102154.38
2024-02-02T05:07:00.777Z,102152.53
2024-02-02T05:09:27.352Z,102149.50
2024-02-02T05:11:53.793Z,102157.53
2024-02-02T05:14:20.380Z,102152.19
2024-02-02T05:16:47.481Z,102158.50
2024-02-02T05:19:14.051Z,102166.75
2024-02-02T05:21:40.592Z,102166.03
2024-02-02T05:24:19.111Z,102166.16
2024-02-02T05:26:54.013Z,102166.16
2024-02-02T05:29:20.527Z,102167.00
2024-02-02T05:31:46.939Z,102164.56
2024-02-02T05:34:14.010Z,102161.16
2024-02-02T05:36:40.735Z,102163.72
2024-02-02T05:39:07.253Z,102157.53
2024-02-02T05:41:33.681Z,102161.28
2024-02-02T05:44:00.371Z,102164.56
2024-02-02T05:46:26.782Z,102162.75
2024-02-02T05:48:53.383Z,102147.47
2024-02-02T05:51:19.973Z,102157.75
2024-02-02T05:53:46.567Z,102146.25
2024-02-02T05:56:13.041Z,102148.66
2024-02-02T05:58:39.721Z,102148.91
2024-02-02T06:01:06.165Z,102142.72
2024-02-02T06:03:32.714Z,102136.66
2024-02-02T06:05:59.284Z,102142.72
2024-02-02T06:08:25.783Z,102125.22
2024-02-02T06:10:52.189Z,102133.16
2024-02-02T06:13:18.659Z,102128.66
2024-02-02T06:15:45.312Z,102132.16
2024-02-02T06:18:12.793Z,102125.13
2024-02-02T06:20:39.360Z,102121.47
2024-02-02T06:23:07.131Z,102121.25
2024-02-02T06:25:33.713Z,102123.91
2024-02-02T06:28:00.158Z,102123.78
2024-02-02T06:30:27.495Z,102119.03
2024-02-02T06:33:00.986Z,102125.09
2024-02-02T06:35:29.236Z,102115.41
2024-02-02T06:37:58.471Z,102114.53
2024-02-02T06:40:27.385Z,102106.31
2024-02-02T06:42:54.405Z,102106.16
2024-02-02T06:45:23.172Z,102103.38
2024-02-02T06:47:49.694Z,102093.16
2024-02-02T06:50:16.315Z,102091.31
2024-02-02T06:52:42.756Z,102085.97
2024-02-02T06:55:09.453Z,102083.06
2024-02-02T06:57:35.885Z,102071.44
2024-02-02T07:00:03.410Z,102080.28
2024-02-02T07:02:31.929Z,102076.63
2024-02-02T07:04:58.855Z,102076.50
2024-02-02T07:07:25.662Z,102075.66
2024-02-02T07:09:55.653Z,102081.47
2024-02-02T07:12:43.884Z,102094.84
2024-02-02T07:15:17.935Z,102093.72
2024-02-02T07:17:46.700Z,102097.56
2024-02-02T07:20:31.956Z,102102.78
2024-02-02T07:23:02.624Z,102098.03
2024-02-02T07:25:37.893Z,102098.63
2024-02-02T07:28:19.542Z,102081.38
2024-02-02T07:30:56.394Z,102094.50
2024-02-02T07:33:43.400Z,102084.38
2024-02-02T07:36:32.326Z,102088.47
2024-02-02T07:38:59.460Z,102081.19
2024-02-02T07:41:28.149Z,102080.91
2024-02-02T07:44:00.442Z,102082.00
2024-02-02T07:46:27.382Z,102087.38
2024-02-02T07:48:54.872Z,102069.53
2024-02-02T07:51:23.736Z,102073.63
2024-02-02T07:53:51.368Z,102072.66
2024-02-02T07:56:19.913Z,102068.00
2024-02-02T07:58:46.394Z,102078.69
2024-02-02T08:01:13.081Z,102074.22
2024-02-02T08:03:39.886Z,102075.06
2024-02-02T08:06:07.341Z,102071.53
2024-02-02T08:08:37.039Z,102073.25
2024-02-02T08:11:03.539Z,102066.78
2024-02-02T08:13:31.513Z,102068.47
2024-02-02T08:15:59.901Z,102071.88
2024-02-02T08:18:28.176Z,102074.66
2024-02-02T08:20:54.971Z,102067.34
2024-02-02T08:23:21.614Z,102070.88
2024-02-02T08:25:48.091Z,102069.50
2024-02-02T08:28:15.926Z,102068.53
2024-02-02T08:30:42.562Z,102060.38
2024-02-02T08:33:09.487Z,102059.03
2024-02-02T08:35:36.150Z,102065.78
2024-02-02T08:38:05.054Z,102054.97
2024-02-02T08:40:39.733Z,102046.41
2024-02-02T08:43:26.645Z,102051.94
2024-02-02T08:46:14.089Z,102054.22
2024-02-02T08:48:48.122Z,102043.97
2024-02-02T08:51:23.958Z,102051.47
2024-02-02T08:53:56.718Z,102047.25
2024-02-02T08:56:23.095Z,102031.25
2024-02-02T08:58:49.530Z,102033.47
2024-02-02T09:01:45.359Z,102030.41
2024-02-02T09:05:00.464Z,102038.72
2024-02-02T09:07:27.089Z,102040.16
2024-02-02T09:09:53.848Z,102033.66
2024-02-02T09:12:20.595Z,102032.88
2024-02-02T09:14:47.177Z,102040.31
2024-02-02T09:17:13.904Z,102043.88
2024-02-02T09:19:42.408Z,102053.59
2024-02-02T09:22:15.262Z,102052.22
2024-02-02T09:24:44.148Z,102048.56
2024-02-02T09:27:40.134Z,102043.63
2024-02-02T09:30:17.558Z,102043.75
2024-02-02T09:32:45.872Z,102038.41
2024-02-02T09:35:42.545Z,102034.28
2024-02-02T09:38:11.330Z,102038.22
2024-02-02T09:40:53.504Z,102039.22
2024-02-02T09:43:32.029Z,102035.25
2024-02-02T09:46:12.444Z,102037.22
2024-02-02T09:48:53.186Z,102035.66
2024-02-02T09:51:45.835Z,102025.91
2024-02-02T09:54:25.987Z,102041.69
2024-02-02T09:57:23.388Z,102037.00
2024-02-02T10:00:11.984Z,102019.91
2024-02-02T10:02:48.989Z,102028.44
2024-02-02T10:05:28.684Z,102029.28
2024-02-02T10:08:23.235Z,102027.03
2024-02-02T10:11:18.432Z,102028.06
2024-02-02T10:14:40.103Z,102036.34
2024-02-02T10:17:21.603Z,102046.66
2024-02-02T10:20:05.121Z,102047.22
2024-02-02T10:22:43.781Z,102045.69
2024-02-02T10:25:23.874Z,102043.94
2024-02-02T10:28:09.356Z,102036.56
2024-02-02T10:30:39.145Z,102040.69
2024-02-02T10:33:36.968Z,102044.75
2024-02-02T10:36:09.049Z,102048.53
2024-02-02T10:38:52.089Z,102050.31
2024-02-02T10:41:48.616Z,102037.94
2024-02-02T10:44:35.449Z,102040.88
2024-02-02T10:47:31.082Z,102040.09
2024-02-02T10:50:01.829Z,102036.16
2024-02-02T10:52:46.174Z,102026.16
2024-02-02T10:55:37.425Z,102025.34
2024-02-02T10:58:17.083Z,102025.88
2024-02-02T11:00:54.817Z,102018.56
2024-02-02T11:03:32.157Z,102013.72
2024-02-02T11:06:17.122Z,102010.91
2024-02-02T11:08:55.656Z,102008.31
2024-02-02T11:11:28.536Z,102006.78
2024-02-02T11:14:01.341Z,101994.84
2024-02-02T11:16:56.397Z,101997.84
2024-02-02T11:20:05.651Z,101995.34
2024-02-02T11:22:39.201Z,101982.50
2024-02-02T11:25:15.155Z,101973.25
2024-02-02T11:28:14.610Z,101981.16
2024-02-02T11:31:10.903Z,101968.47
2024-02-02T11:33:59.063Z,101979.41
2024-02-02T11:36:52.074Z,101967.63
2024-02-02T11:39:35.467Z,101966.81
2024-02-02T11:42:05.000Z,101958.09
2024-02-02T11:44:34.503Z,101959.81
2024-02-02T11:47:03.609Z,101958.81
2024-02-02T11:49:37.145Z,101957.72
2024-02-02T11:52:06.803Z,101957.38
2024-02-02T11:55:02.573Z,101959.56
2024-02-02T11:57:33.868Z,101946.66
2024-02-02T12:00:02.984Z,101938.72
2024-02-02T12:02:39.174Z,101945.97
2024-02-02T12:05:19.535Z,101938.06
2024-02-02T12:07:58.100Z,101931.84
2024-02-02T12:10:29.507Z,101927.78
2024-02-02T12:13:07.673Z,101937.88
2024-02-02T12:15:34.256Z,101931.97
2024-02-02T12:18:03.644Z,101921.84
2024-02-02T12:20:32.306Z,101915.28
2024-02-02T12:22:59.318Z,101907.84
2024-02-02T12:25:26.216Z,101897.88
2024-02-02T12:27:53.120Z,101901.56
2024-02-02T12:30:19.949Z,101904.41
2024-02-02T12:32:57.536Z,101898.13
2024-02-02T12:35:25.771Z,101900.81
2024-02-02T12:37:53.434Z,101897.47
2024-02-02T12:40:26.391Z,101894.41
2024-02-02T12:42:57.294Z,101896.06
2024-02-02T12:45:23.753Z,101890.66
2024-02-02T12:47:50.421Z,101889.28
2024-02-02T12:50:19.133Z,101882.31
2024-02-02T12:52:46.540Z,101866.72
2024-02-02T12:55:13.673Z,101861.00
2024-02-02T12:57:41.668Z,101863.31
2024-02-02T13:00:15.216Z,101861.50
2024-02-02T13:02:46.751Z,101852.00
2024-02-02T13:05:17.983Z,101849.59
2024-02-02T13:07:49.952Z,101856.84
2024-02-02T13:10:35.808Z,101854.97
2024-02-02T13:13:13.195Z,101863.25
2024-02-02T13:15:40.438Z,101853.47
2024-02-02T13:18:14.005Z,101862.06
2024-02-02T13:20:43.023Z,101855.63
2024-02-02T13:23:14.163Z,101847.16
2024-02-02T13:25:43.998Z,101840.25
2024-02-02T13:28:19.519Z,101844.47
2024-02-02T13:31:05.541Z,101845.78
2024-02-02T13:33:34.273Z,101836.97
2024-02-02T13:36:03.988Z,101834.34
2024-02-02T13:38:34.679Z,101837.00
2024-02-02T13:41:01.463Z,101834.94
2024-02-02T13:43:29.047Z,101821.16
2024-02-02T13:46:03.916Z,101825.63
2024-02-02T13:48:48.684Z,101821.25
2024-02-02T13:51:24.078Z,101813.63
2024-02-02T13:53:52.942Z,101804.50
2024-02-02T13:56:23.623Z,101790.59
2024-02-02T13:58:50.287Z,101783.06
2024-02-02T14:01:21.572Z,101779.34
2024-02-02T14:03:52.520Z,101770.38
2024-02-02T14:06:19.743Z,101771.38
2024-02-02T14:08:48.942Z,101777.47
2024-02-02T14:11:31.619Z,101775.44
2024-02-02T14:13:58.563Z,101772.81
2024-02-02T14:16:27.449Z,101773.09
2024-02-02T14:19:05.403Z,101767.13
2024-02-02T14:21:34.244Z,101761.16
2024-02-02T14:24:13.858Z,101774.50
2024-02-02T14:26:54.938Z,101759.47
2024-02-02T14:29:23.332Z,101754.47
2024-02-02T14:31:54.550Z,101748.03
2024-02-02T14:34:21.697Z,101741.13
2024-02-02T14:36:48.340Z,101738.31
2024-02-02T14:39:26.096Z,101741.41
2024-02-02T14:41:57.622Z,101745.31
2024-02-02T14:44:26.198Z,101737.66
2024-02-02T14:46:52.725Z,101732.06
2024-02-02T14:49:23.191Z,101740.56
2024-02-02T14:51:49.926Z,101741.78
2024-02-02T14:54:16.444Z,101754.81
2024-02-02T14:56:43.188Z,101757.72
2024-02-02T14:59:09.927Z,101746.03
2024-02-02T15:01:37.822Z,101742.50
2024-02-02T15:04:05.042Z,101748.94
2024-02-02T15:06:32.651Z,101741.66
2024-02-02T15:09:00.797Z,101738.31
2024-02-02T15:11:28.371Z,101741.03
2024-02-02T15:13:55.732Z,101741.22
2024-02-02T15:16:24.587Z,101732.25
2024-02-02T15:18:51.117Z,101732.72
2024-02-02T15:21:17.627Z,101736.63
2024-02-02T15:23:44.028Z,101724.31
2024-02-02T15:26:12.716Z,101723.94
2024-02-02T15:28:41.449Z,101725.16
2024-02-02T15:31:08.418Z,101724.72
2024-02-02T15:33:35.505Z,101722.34
2024-02-02T15:36:02.064Z,101718.34
2024-02-02T15:38:28.809Z,101709.41
2024-02-02T15:40:58.848Z,101724.47
2024-02-02T15:43:25.537Z,101717.13
2024-02-02T15:45:52.306Z,101725.59
2024-02-02T15:48:19.195Z,101732.59
2024-02-02T15:50:47.271Z,101738.78
2024-02-02T15:53:13.775Z,101741.75
2024-02-02T15:55:40.508Z,101742.00
2024-02-02T15:58:07.067Z,101743.72
2024-02-02T16:00:35.303Z,101755.59
2024-02-02T16:03:01.789Z,101754.78
2024-02-02T16:05:28.271Z,101758.38
2024-02-02T16:07:54.685Z,101768.22
2024-02-02T16:10:21.236Z,101770.78
2024-02-02T16:12:47.803Z,101764.22
2024-02-02T16:15:14.412Z,101763.56
2024-02-02T16:17:41.217Z,101756.72
2024-02-02T16:20:12.262Z,101763.34
2024-02-02T16:22:40.186Z,101754.97
2024-02-02T16:25:09.374Z,101754.00
2024-02-02T16:27:36.473Z,101761.09
2024-02-02T16:30:03.507Z,101764.75
2024-02-02T16:32:30.258Z,101766.25
2024-02-02T16:34:56.976Z,101759.03
2024-02-02T16:37:23.980Z,101749.09
2024-02-02T16:39:50.808Z,101745.50
2024-02-02T16:42:17.321Z,101748.53
2024-02-02T16:44:43.777Z,101750.00
2024-02-02T16:47:11.764Z,101749.31
2024-02-02T16:49:40.105Z,101741.53
2024-02-02T16:52:06.951Z,101739.13
2024-02-02T16:54:33.607Z,101742.25
2024-02-02T16:57:00.182Z,101749.59
2024-02-02T16:59:26.687Z,101751.53
2024-02-02T17:01:53.539Z,101755.03
2024-02-02T17:04:20.096Z,101761.84
2024-02-02T17:06:46.717Z,101756.38
2024-02-02T17:09:13.380Z,101755.97
2024-02-02T17:11:39.914Z,101751.53
2024-02-02T17:14:06.326Z,101773.78
2024-02-02T17:16:32.859Z,101779.53
2024-02-02T17:18:59.374Z,101786.19
2024-02-02T17:21:25.862Z,101801.22
2024-02-02T17:23:52.423Z,101798.16
2024-02-02T17:26:19.153Z,101806.81
2024-02-02T17:28:45.857Z,101800.38
2024-02-02T17:31:13.844Z,101806.66
2024-02-02T17:33:41.099Z,101804.56
2024-02-02T17:36:12.876Z,101796.28
2024-02-02T17:38:40.002Z,101797.69
2024-02-02T17:41:14.342Z,101800.69
2024-02-02T17:43:41.315Z,101800.13
2024-02-02T17:46:08.455Z,101793.06
2024-02-02T17:48:36.008Z,101802.56
2024-02-02T17:51:08.915Z,101813.03
2024-02-02T17:53:36.493Z,101818.13
2024-02-02T17:56:07.271Z,101808.69
2024-02-02T17:58:34.026Z,101812.25
2024-02-02T18:01:01.235Z,101818.31
2024-02-02T18:03:28.971Z,101824.13
2024-02-02T18:05:55.918Z,101809.47
2024-02-02T18:08:23.818Z,101817.81
2024-02-02T18:10:50.866Z,101825.00
2024-02-02T18:13:17.389Z,101821.63
2024-02-02T18:15:44.471Z,101816.41
2024-02-02T18:18:12.096Z,101830.78
2024-02-02T18:20:38.734Z,101835.88
2024-02-02T18:23:06.927Z,101828.25
2024-02-02T18:25:33.398Z,101831.94
2024-02-02T18:27:59.908Z,101829.53
2024-02-02T18:30:27.131Z,101829.97
2024-02-02T18:32:53.674Z,101827.84
2024-02-02T18:35:20.196Z,101825.00
2024-02-02T18:37:49.547Z,101824.03
2024-02-02T18:40:16.716Z,101825.84
2024-02-02T18:42:43.298Z,101827.28
2024-02-02T18:45:10.268Z,101823.19
2024-02-02T18:47:38.931Z,101826.28
2024-02-02T18:50:06.157Z,101821.03
2024-02-02T18:52:32.574Z,101822.16
2024-02-02T18:54:59.021Z,101823.56
2024-02-02T18:57:25.547Z,101826.41
2024-02-02T18:59:51.973Z,101819.88
2024-02-02T19:02:18.499Z,101822.97
2024-02-02T19:04:45.351Z,101818.03
2024-02-02T19:07:12.416Z,101818.44
2024-02-02T19:09:38.957Z,101818.97
2024-02-02T19:12:06.445Z,101816.44
2024-02-02T19:14:32.893Z,101828.69
2024-02-02T19:16:59.361Z,101821.06
2024-02-02T19:19:25.910Z,101821.06
2024-02-02T19:21:52.739Z,101828.63
2024-02-02T19:24:19.384Z,101826.78
2024-02-02T19:26:46.026Z,101834.06
2024-02-02T19:29:12.519Z,101843.06
2024-02-02T19:31:40.458Z,101834.78
2024-02-02T19:34:07.922Z,101827.50
2024-02-02T19:36:34.786Z,101831.13
2024-02-02T19:39:02.578Z,101840.97
2024-02-02T19:41:31.680Z,101845.47
2024-02-02T19:44:01.898Z,101838.63
2024-02-02T19:46:32.693Z,101843.41
2024-02-02T19:49:00.770Z,101834.69
2024-02-02T19:51:28.596Z,101833.84
2024-02-02T19:53:55.502Z,101830.63
2024-02-02T19:56:22.364Z,101833.53
2024-02-02T19:58:50.310Z,101837.31
2024-02-02T20:01:20.779Z,101833.63
2024-02-02T20:03:48.933Z,101843.53
2024-02-02T20:06:18.544Z,101841.28
2024-02-02T20:08:46.544Z,101851.25
2024-02-02T20:11:13.823Z,101852.66
2024-02-02T20:13:40.939Z,101855.19
2024-02-02T20:16:07.985Z,101859.69
2024-02-02T20:18:34.570Z,101859.56
2024-02-02T20:21:07.168Z,101864.25
2024-02-02T20:23:35.656Z,101870.75
2024-02-02T20:26:05.284Z,101871.06
2024-02-02T20:28:32.117Z,101879.25
2024-02-02T20:31:00.145Z,101889.28
2024-02-02T20:33:26.687Z,101896.19
2024-02-02T20:35:53.265Z,101897.50
2024-02-02T20:38:19.694Z,101897.66
2024-02-02T20:40:46.082Z,101890.81
2024-02-02T20:43:12.548Z,101896.69
2024-02-02T20:45:39.103Z,101893.50
2024-02-02T20:48:06.038Z,101893.09
2024-02-02T20:50:32.542Z,101891.56
2024-02-02T20:52:58.992Z,101898.06
2024-02-02T20:55:25.518Z,101900.34
2024-02-02T20:57:52.032Z,101907.09
2024-02-02T21:00:19.000Z,101909.34
2024-02-02T21:02:47.882Z,101905.69
2024-02-02T21:05:14.402Z,101919.50
2024-02-02T21:07:41.100Z,101913.75
2024-02-02T21:10:07.753Z,101903.63
2024-02-02T21:12:34.763Z,101904.16
2024-02-02T21:15:01.420Z,101902.91
2024-02-02T21:17:29.687Z,101903.75
2024-02-02T21:19:57.874Z,101906.28
2024-02-02T21:22:25.034Z,101913.03
2024-02-02T21:24:51.514Z,101909.81
2024-02-02T21:27:18.309Z,101909.66
2024-02-02T21:29:44.743Z,101914.75
2024-02-02T21:32:11.198Z,101915.19
2024-02-02T21:34:37.785Z,101910.41
2024-02-02T21:37:04.976Z,101922.53
2024-02-02T21:39:31.401Z,101917.84
2024-02-02T21:41:58.060Z,101909.56
2024-02-02T21:44:24.961Z,101914.63
2024-02-02T21:46:51.490Z,101915.19
2024-02-02T21:49:17.969Z,101908.56
2024-02-02T21:51:44.666Z,101916.31
2024-02-02T21:54:13.020Z,101911.66
2024-02-02T21:56:43.301Z,101914.31
2024-02-02T21:59:10.135Z,101913.06
2024-02-02T22:01:38.352Z,101910.25
2024-02-02T22:04:05.934Z,101907.28
2024-02-02T22:06:33.344Z,101893.06
2024-02-02T22:09:02.514Z,101889.50
2024-02-02T22:11:28.928Z,101899.81
2024-02-02T22:13:55.369Z,101898.09
2024-02-02T22:16:21.738Z,101894.16
2024-02-02T22:18:50.006Z,101890.91
2024-02-02T22:21:24.702Z,101888.31
2024-02-02T22:23:51.311Z,101893.63
2024-02-02T22:26:19.526Z,101891.66
2024-02-02T22:28:46.466Z,101888.34
2024-02-02T22:31:22.761Z,101892.69
2024-02-02T22:33:50.766Z,101903.38
2024-02-02T22:36:21.857Z,101896.13
2024-02-02T22:38:48.432Z,101893.44
2024-02-02T22:41:31.947Z,101892.69
2024-02-02T22:44:00.356Z,101888.53
2024-02-02T22:46:26.754Z,101883.56
2024-02-02T22:48:53.582Z,101887.34
2024-02-02T22:51:20.147Z,101890.56
2024-02-02T22:53:46.921Z,101888.28
2024-02-02T22:56:13.472Z,101884.13
2024-02-02T22:58:41.178Z,101878.97
2024-02-02T23:01:08.710Z,101876.00
2024-02-02T23:03:35.730Z,101877.53
2024-02-02T23:06:03.015Z,101870.16
2024-02-02T23:08:30.271Z,101866.19
2024-02-02T23:10:57.621Z,101862.34
2024-02-02T23:13:24.848Z,101857.81
2024-02-02T23:15:54.177Z,101857.50
2024-02-02T23:18:27.773Z,101862.09
2024-02-02T23:20:59.155Z,101872.69
2024-02-02T23:23:26.496Z,101870.69
2024-02-02T23:25:52.887Z,101873.59
2024-02-02T23:28:19.296Z,101872.44
2024-02-02T23:30:47.022Z,101870.13
2024-02-02T23:33:14.227Z,101870.81
2024-02-02T23:35:41.806Z,101882.28
2024-02-02T23:38:09.159Z,101881.94
2024-02-02T23:40:35.552Z,101884.16
2024-02-02T23:43:02.175Z,101874.63
2024-02-02T23:45:28.584Z,101871.25
2024-02-02T23:47:55.077Z,101865.03
2024-02-02T23:50:21.525Z,101863.88
2024-02-02T23:52:48.581Z,101869.91
2024-02-02T23:55:15.263Z,101865.06
2024-02-02T23:57:41.839Z,101862.22
